11°C Temp
1°C Dewpoint
50% Humidity
Temperature
8 KM/H
5 MPH
4 KTS
340°
North North
West

Wind Speed
Partly Cloudy
Conditions
Pressure 1020.92 (hPa) - 30.15 (in)
Visibility 6.2 (mi) - 10.0 (km)

Current Conditions
LGAV
Location 35(km)
Metar :LGAV 030720Z 34004KT 310V020 9999 FEW025 11/01 Q1021 NOSIG
Fri 3rd February 09:20 am

Airport
  Metar Aviation API Data Provided by https://www.checkwx.com/ PHP scripts by weather34.com ©2023